sensor_id;sensor_type;location;lat;lon;timestamp;P1;durP1;ratioP1;P2;durP2;ratioP2
21562;SDS011;10942;47.894;11.424;2023-05-09T00:00:11;23.50;;;14.90;;
21562;SDS011;10942;47.894;11.424;2023-05-09T00:02:39;21.02;;;14.68;;
21562;SDS011;10942;47.894;11.424;2023-05-09T00:05:05;21.00;;;14.63;;
21562;SDS011;10942;47.894;11.424;2023-05-09T00:07:35;21.13;;;14.70;;
21562;SDS011;10942;47.894;11.424;2023-05-09T00:10:00;18.98;;;13.25;;
21562;SDS011;10942;47.894;11.424;2023-05-09T00:12:27;20.02;;;14.23;;
21562;SDS011;10942;47.894;11.424;2023-05-09T00:14:53;21.23;;;14.38;;
21562;SDS011;10942;47.894;11.424;2023-05-09T00:17:21;23.50;;;15.00;;
21562;SDS011;10942;47.894;11.424;2023-05-09T00:19:48;21.25;;;15.02;;
21562;SDS011;10942;47.894;11.424;2023-05-09T00:22:15;21.95;;;14.73;;
21562;SDS011;10942;47.894;11.424;2023-05-09T00:24:42;22.73;;;14.93;;
21562;SDS011;10942;47.894;11.424;2023-05-09T00:27:08;21.90;;;14.77;;
21562;SDS011;10942;47.894;11.424;2023-05-09T00:29:34;21.88;;;14.77;;
21562;SDS011;10942;47.894;11.424;2023-05-09T00:32:00;22.58;;;14.45;;
21562;SDS011;10942;47.894;11.424;2023-05-09T00:34:26;23.95;;;14.85;;
21562;SDS011;10942;47.894;11.424;2023-05-09T00:36:52;22.65;;;14.57;;
21562;SDS011;10942;47.894;11.424;2023-05-09T00:39:18;21.95;;;14.98;;
21562;SDS011;10942;47.894;11.424;2023-05-09T00:41:43;20.48;;;14.05;;
21562;SDS011;10942;47.894;11.424;2023-05-09T00:44:09;21.38;;;13.60;;
21562;SDS011;10942;47.894;11.424;2023-05-09T00:46:35;26.00;;;14.63;;
21562;SDS011;10942;47.894;11.424;2023-05-09T00:49:01;22.48;;;14.90;;
21562;SDS011;10942;47.894;11.424;2023-05-09T00:51:28;22.35;;;14.50;;
21562;SDS011;10942;47.894;11.424;2023-05-09T00:53:55;22.08;;;14.05;;
21562;SDS011;10942;47.894;11.424;2023-05-09T00:56:20;22.08;;;14.32;;
21562;SDS011;10942;47.894;11.424;2023-05-09T00:58:46;22.60;;;14.73;;
21562;SDS011;10942;47.894;11.424;2023-05-09T01:01:12;21.98;;;14.55;;
21562;SDS011;10942;47.894;11.424;2023-05-09T01:03:38;19.35;;;13.30;;
21562;SDS011;10942;47.894;11.424;2023-05-09T01:09:13;22.48;;;13.00;;
21562;SDS011;10942;47.894;11.424;2023-05-09T01:11:58;19.95;;;13.77;;
21562;SDS011;10942;47.894;11.424;2023-05-09T01:14:31;21.08;;;13.80;;
21562;SDS011;10942;47.894;11.424;2023-05-09T01:17:15;19.63;;;13.32;;
21562;SDS011;10942;47.894;11.424;2023-05-09T01:20:01;18.65;;;13.48;;
21562;SDS011;10942;47.894;11.424;2023-05-09T01:22:34;23.15;;;15.73;;
21562;SDS011;10942;47.894;11.424;2023-05-09T01:25:05;21.15;;;14.00;;
21562;SDS011;10942;47.894;11.424;2023-05-09T01:27:43;21.10;;;13.70;;
21562;SDS011;10942;47.894;11.424;2023-05-09T01:30:32;20.35;;;13.02;;
21562;SDS011;10942;47.894;11.424;2023-05-09T01:32:59;19.48;;;13.07;;
21562;SDS011;10942;47.894;11.424;2023-05-09T01:35:31;22.33;;;13.85;;
21562;SDS011;10942;47.894;11.424;2023-05-09T01:37:59;20.10;;;12.75;;
21562;SDS011;10942;47.894;11.424;2023-05-09T01:40:29;20.67;;;11.50;;
21562;SDS011;10942;47.894;11.424;2023-05-09T01:42:59;21.67;;;13.07;;
21562;SDS011;10942;47.894;11.424;2023-05-09T01:45:29;19.45;;;13.02;;
21562;SDS011;10942;47.894;11.424;2023-05-09T01:47:56;19.65;;;12.18;;
21562;SDS011;10942;47.894;11.424;2023-05-09T01:50:23;18.75;;;12.48;;
21562;SDS011;10942;47.894;11.424;2023-05-09T01:52:51;20.90;;;13.38;;
21562;SDS011;10942;47.894;11.424;2023-05-09T01:55:18;19.75;;;13.27;;
21562;SDS011;10942;47.894;11.424;2023-05-09T01:57:44;21.65;;;13.80;;
21562;SDS011;10942;47.894;11.424;2023-05-09T02:00:11;19.60;;;13.70;;
21562;SDS011;10942;47.894;11.424;2023-05-09T02:02:38;16.67;;;10.57;;
21562;SDS011;10942;47.894;11.424;2023-05-09T02:05:05;12.38;;;8.18;;
21562;SDS011;10942;47.894;11.424;2023-05-09T02:07:31;10.27;;;7.43;;
21562;SDS011;10942;47.894;11.424;2023-05-09T02:09:58;10.75;;;7.60;;
21562;SDS011;10942;47.894;11.424;2023-05-09T02:12:25;11.52;;;8.15;;
21562;SDS011;10942;47.894;11.424;2023-05-09T02:14:51;12.27;;;8.10;;
21562;SDS011;10942;47.894;11.424;2023-05-09T02:17:17;11.65;;;7.38;;
21562;SDS011;10942;47.894;11.424;2023-05-09T02:19:43;12.77;;;8.02;;
21562;SDS011;10942;47.894;11.424;2023-05-09T02:22:09;13.40;;;8.90;;
21562;SDS011;10942;47.894;11.424;2023-05-09T02:24:36;15.45;;;9.88;;
21562;SDS011;10942;47.894;11.424;2023-05-09T02:27:02;14.02;;;9.05;;
21562;SDS011;10942;47.894;11.424;2023-05-09T02:29:33;15.65;;;10.20;;
21562;SDS011;10942;47.894;11.424;2023-05-09T02:32:07;15.63;;;10.57;;
21562;SDS011;10942;47.894;11.424;2023-05-09T02:34:36;18.02;;;10.77;;
21562;SDS011;10942;47.894;11.424;2023-05-09T02:37:02;16.70;;;11.07;;
21562;SDS011;10942;47.894;11.424;2023-05-09T02:39:28;17.10;;;11.48;;
21562;SDS011;10942;47.894;11.424;2023-05-09T02:41:55;15.05;;;10.18;;
21562;SDS011;10942;47.894;11.424;2023-05-09T02:44:21;16.60;;;11.23;;
21562;SDS011;10942;47.894;11.424;2023-05-09T02:46:47;16.52;;;11.23;;
21562;SDS011;10942;47.894;11.424;2023-05-09T02:49:13;16.05;;;10.63;;
21562;SDS011;10942;47.894;11.424;2023-05-09T02:51:39;15.32;;;10.40;;
21562;SDS011;10942;47.894;11.424;2023-05-09T02:54:04;14.43;;;9.70;;
21562;SDS011;10942;47.894;11.424;2023-05-09T02:56:30;16.00;;;11.10;;
21562;SDS011;10942;47.894;11.424;2023-05-09T02:58:56;14.88;;;10.15;;
21562;SDS011;10942;47.894;11.424;2023-05-09T03:01:21;17.52;;;11.23;;
21562;SDS011;10942;47.894;11.424;2023-05-09T03:03:47;19.85;;;11.70;;
21562;SDS011;10942;47.894;11.424;2023-05-09T03:06:14;20.30;;;11.90;;
21562;SDS011;10942;47.894;11.424;2023-05-09T03:08:40;16.08;;;10.65;;
21562;SDS011;10942;47.894;11.424;2023-05-09T03:11:06;15.85;;;9.38;;
21562;SDS011;10942;47.894;11.424;2023-05-09T03:13:32;16.95;;;9.75;;
21562;SDS011;10942;47.894;11.424;2023-05-09T03:15:58;15.10;;;9.95;;
21562;SDS011;10942;47.894;11.424;2023-05-09T03:18:23;15.73;;;10.50;;
21562;SDS011;10942;47.894;11.424;2023-05-09T03:20:50;13.60;;;9.43;;
21562;SDS011;10942;47.894;11.424;2023-05-09T03:23:16;11.73;;;8.80;;
21562;SDS011;10942;47.894;11.424;2023-05-09T03:25:41;12.80;;;9.18;;
21562;SDS011;10942;47.894;11.424;2023-05-09T03:28:07;12.18;;;8.52;;
21562;SDS011;10942;47.894;11.424;2023-05-09T03:30:33;14.98;;;9.98;;
21562;SDS011;10942;47.894;11.424;2023-05-09T03:33:00;14.27;;;9.77;;
21562;SDS011;10942;47.894;11.424;2023-05-09T03:35:25;14.00;;;9.77;;
21562;SDS011;10942;47.894;11.424;2023-05-09T03:37:52;13.43;;;9.50;;
21562;SDS011;10942;47.894;11.424;2023-05-09T03:40:17;15.65;;;10.35;;
21562;SDS011;10942;47.894;11.424;2023-05-09T03:42:49;17.73;;;11.55;;
21562;SDS011;10942;47.894;11.424;2023-05-09T03:45:15;17.58;;;11.68;;
21562;SDS011;10942;47.894;11.424;2023-05-09T03:47:42;17.85;;;12.20;;
21562;SDS011;10942;47.894;11.424;2023-05-09T03:50:08;19.52;;;12.02;;
21562;SDS011;10942;47.894;11.424;2023-05-09T03:52:35;18.25;;;11.93;;
21562;SDS011;10942;47.894;11.424;2023-05-09T03:55:01;21.10;;;14.07;;
21562;SDS011;10942;47.894;11.424;2023-05-09T03:57:31;23.48;;;13.80;;
21562;SDS011;10942;47.894;11.424;2023-05-09T03:59:59;22.98;;;14.35;;
21562;SDS011;10942;47.894;11.424;2023-05-09T04:02:25;22.35;;;13.98;;
21562;SDS011;10942;47.894;11.424;2023-05-09T04:04:51;23.00;;;14.32;;
21562;SDS011;10942;47.894;11.424;2023-05-09T04:07:19;20.92;;;13.65;;
21562;SDS011;10942;47.894;11.424;2023-05-09T04:09:46;21.10;;;13.77;;
21562;SDS011;10942;47.894;11.424;2023-05-09T04:12:13;22.70;;;14.27;;
21562;SDS011;10942;47.894;11.424;2023-05-09T04:14:40;22.65;;;14.65;;
21562;SDS011;10942;47.894;11.424;2023-05-09T04:17:07;20.85;;;14.30;;
21562;SDS011;10942;47.894;11.424;2023-05-09T04:19:33;24.52;;;14.10;;
21562;SDS011;10942;47.894;11.424;2023-05-09T04:21:59;21.83;;;14.02;;
21562;SDS011;10942;47.894;11.424;2023-05-09T04:24:25;21.58;;;13.68;;
21562;SDS011;10942;47.894;11.424;2023-05-09T04:26:51;20.35;;;13.63;;
21562;SDS011;10942;47.894;11.424;2023-05-09T04:29:21;20.35;;;13.48;;
21562;SDS011;10942;47.894;11.424;2023-05-09T04:31:51;19.25;;;13.43;;
21562;SDS011;10942;47.894;11.424;2023-05-09T04:34:18;19.42;;;13.43;;
21562;SDS011;10942;47.894;11.424;2023-05-09T04:36:44;23.10;;;15.10;;
21562;SDS011;10942;47.894;11.424;2023-05-09T04:39:11;23.05;;;14.60;;
21562;SDS011;10942;47.894;11.424;2023-05-09T04:41:42;23.97;;;14.30;;
21562;SDS011;10942;47.894;11.424;2023-05-09T04:44:10;23.42;;;14.60;;
21562;SDS011;10942;47.894;11.424;2023-05-09T04:46:37;22.90;;;14.98;;
21562;SDS011;10942;47.894;11.424;2023-05-09T04:49:03;24.95;;;15.65;;
21562;SDS011;10942;47.894;11.424;2023-05-09T04:51:29;27.15;;;15.77;;
21562;SDS011;10942;47.894;11.424;2023-05-09T04:53:55;25.58;;;16.05;;
21562;SDS011;10942;47.894;11.424;2023-05-09T04:56:27;27.95;;;17.67;;
21562;SDS011;10942;47.894;11.424;2023-05-09T04:58:53;42.17;;;24.60;;
21562;SDS011;10942;47.894;11.424;2023-05-09T05:01:19;39.95;;;21.90;;
21562;SDS011;10942;47.894;11.424;2023-05-09T05:03:45;26.35;;;16.30;;
21562;SDS011;10942;47.894;11.424;2023-05-09T05:06:11;31.02;;;18.08;;
21562;SDS011;10942;47.894;11.424;2023-05-09T05:08:39;25.67;;;16.10;;
21562;SDS011;10942;47.894;11.424;2023-05-09T05:11:05;23.92;;;15.20;;
21562;SDS011;10942;47.894;11.424;2023-05-09T05:13:31;19.35;;;12.65;;
21562;SDS011;10942;47.894;11.424;2023-05-09T05:15:59;17.73;;;11.25;;
21562;SDS011;10942;47.894;11.424;2023-05-09T05:18:25;17.30;;;10.93;;
21562;SDS011;10942;47.894;11.424;2023-05-09T05:20:50;20.63;;;12.43;;
21562;SDS011;10942;47.894;11.424;2023-05-09T05:23:16;18.40;;;11.38;;
21562;SDS011;10942;47.894;11.424;2023-05-09T05:25:42;18.63;;;11.98;;
21562;SDS011;10942;47.894;11.424;2023-05-09T05:28:08;20.95;;;13.70;;
21562;SDS011;10942;47.894;11.424;2023-05-09T05:30:38;20.52;;;13.00;;
21562;SDS011;10942;47.894;11.424;2023-05-09T05:33:04;21.02;;;13.05;;
21562;SDS011;10942;47.894;11.424;2023-05-09T05:35:30;18.63;;;12.35;;
21562;SDS011;10942;47.894;11.424;2023-05-09T05:37:56;17.50;;;11.80;;
21562;SDS011;10942;47.894;11.424;2023-05-09T05:40:23;21.42;;;13.02;;
21562;SDS011;10942;47.894;11.424;2023-05-09T05:42:51;18.35;;;12.05;;
21562;SDS011;10942;47.894;11.424;2023-05-09T05:45:16;18.08;;;12.68;;
21562;SDS011;10942;47.894;11.424;2023-05-09T05:47:46;18.48;;;12.57;;
21562;SDS011;10942;47.894;11.424;2023-05-09T05:50:12;15.90;;;10.68;;
21562;SDS011;10942;47.894;11.424;2023-05-09T05:52:39;16.90;;;10.77;;
21562;SDS011;10942;47.894;11.424;2023-05-09T05:55:07;14.15;;;9.52;;
21562;SDS011;10942;47.894;11.424;2023-05-09T05:57:35;14.77;;;9.98;;
21562;SDS011;10942;47.894;11.424;2023-05-09T06:00:04;13.85;;;9.80;;
21562;SDS011;10942;47.894;11.424;2023-05-09T06:02:40;15.20;;;9.15;;
21562;SDS011;10942;47.894;11.424;2023-05-09T06:05:09;10.63;;;8.27;;
21562;SDS011;10942;47.894;11.424;2023-05-09T06:07:36;11.77;;;8.82;;
21562;SDS011;10942;47.894;11.424;2023-05-09T06:10:02;10.40;;;8.23;;
21562;SDS011;10942;47.894;11.424;2023-05-09T06:12:28;10.40;;;8.13;;
21562;SDS011;10942;47.894;11.424;2023-05-09T06:14:54;10.00;;;7.85;;
21562;SDS011;10942;47.894;11.424;2023-05-09T06:17:20;9.60;;;7.35;;
21562;SDS011;10942;47.894;11.424;2023-05-09T06:19:46;9.48;;;6.50;;
21562;SDS011;10942;47.894;11.424;2023-05-09T06:22:12;10.02;;;7.40;;
21562;SDS011;10942;47.894;11.424;2023-05-09T06:24:38;9.52;;;7.28;;
21562;SDS011;10942;47.894;11.424;2023-05-09T06:27:03;9.70;;;7.65;;
21562;SDS011;10942;47.894;11.424;2023-05-09T06:29:29;8.32;;;6.78;;
21562;SDS011;10942;47.894;11.424;2023-05-09T06:31:55;9.00;;;6.90;;
21562;SDS011;10942;47.894;11.424;2023-05-09T06:34:21;8.65;;;6.75;;
21562;SDS011;10942;47.894;11.424;2023-05-09T06:36:47;9.68;;;7.03;;
21562;SDS011;10942;47.894;11.424;2023-05-09T06:39:12;9.07;;;6.78;;
21562;SDS011;10942;47.894;11.424;2023-05-09T06:41:38;8.35;;;6.20;;
21562;SDS011;10942;47.894;11.424;2023-05-09T06:44:04;8.85;;;6.80;;
21562;SDS011;10942;47.894;11.424;2023-05-09T06:46:30;9.55;;;5.85;;
21562;SDS011;10942;47.894;11.424;2023-05-09T06:48:55;8.15;;;5.90;;
21562;SDS011;10942;47.894;11.424;2023-05-09T06:58:43;9.15;;;5.97;;
21562;SDS011;10942;47.894;11.424;2023-05-09T07:01:09;9.40;;;5.80;;
21562;SDS011;10942;47.894;11.424;2023-05-09T07:16:05;7.22;;;5.55;;
21562;SDS011;10942;47.894;11.424;2023-05-09T07:18:31;6.20;;;4.63;;
21562;SDS011;10942;47.894;11.424;2023-05-09T07:20:57;7.05;;;5.10;;
21562;SDS011;10942;47.894;11.424;2023-05-09T07:23:22;6.85;;;5.20;;
21562;SDS011;10942;47.894;11.424;2023-05-09T07:25:54;8.07;;;5.47;;
21562;SDS011;10942;47.894;11.424;2023-05-09T07:28:23;8.35;;;5.30;;
21562;SDS011;10942;47.894;11.424;2023-05-09T07:30:50;7.28;;;5.50;;
21562;SDS011;10942;47.894;11.424;2023-05-09T07:33:15;9.02;;;6.07;;
21562;SDS011;10942;47.894;11.424;2023-05-09T07:35:41;9.48;;;6.65;;
21562;SDS011;10942;47.894;11.424;2023-05-09T07:38:07;8.40;;;6.28;;
21562;SDS011;10942;47.894;11.424;2023-05-09T07:40:33;10.25;;;7.43;;
21562;SDS011;10942;47.894;11.424;2023-05-09T07:43:01;9.57;;;7.35;;
21562;SDS011;10942;47.894;11.424;2023-05-09T07:45:26;7.88;;;6.05;;
21562;SDS011;10942;47.894;11.424;2023-05-09T07:47:52;7.70;;;6.38;;
21562;SDS011;10942;47.894;11.424;2023-05-09T07:50:18;7.72;;;6.20;;
21562;SDS011;10942;47.894;11.424;2023-05-09T07:52:43;7.57;;;5.35;;
21562;SDS011;10942;47.894;11.424;2023-05-09T07:55:09;8.70;;;6.07;;
21562;SDS011;10942;47.894;11.424;2023-05-09T07:57:36;9.00;;;5.80;;
21562;SDS011;10942;47.894;11.424;2023-05-09T08:00:03;6.95;;;4.65;;
21562;SDS011;10942;47.894;11.424;2023-05-09T08:02:38;7.72;;;5.72;;
21562;SDS011;10942;47.894;11.424;2023-05-09T08:05:04;7.05;;;5.00;;
21562;SDS011;10942;47.894;11.424;2023-05-09T08:07:31;6.22;;;4.97;;
21562;SDS011;10942;47.894;11.424;2023-05-09T08:09:58;5.88;;;4.65;;
21562;SDS011;10942;47.894;11.424;2023-05-09T08:12:25;5.40;;;4.10;;
21562;SDS011;10942;47.894;11.424;2023-05-09T08:14:51;5.53;;;3.83;;
21562;SDS011;10942;47.894;11.424;2023-05-09T08:17:16;5.53;;;3.70;;
21562;SDS011;10942;47.894;11.424;2023-05-09T08:19:42;4.65;;;3.35;;
21562;SDS011;10942;47.894;11.424;2023-05-09T08:22:08;5.82;;;3.17;;
21562;SDS011;10942;47.894;11.424;2023-05-09T08:27:05;5.75;;;3.72;;
21562;SDS011;10942;47.894;11.424;2023-05-09T08:29:31;6.57;;;4.60;;
21562;SDS011;10942;47.894;11.424;2023-05-09T08:31:57;7.68;;;7.07;;
21562;SDS011;10942;47.894;11.424;2023-05-09T08:34:23;10.07;;;9.38;;
21562;SDS011;10942;47.894;11.424;2023-05-09T08:36:49;12.02;;;11.23;;
21562;SDS011;10942;47.894;11.424;2023-05-09T08:39:15;11.63;;;10.85;;
21562;SDS011;10942;47.894;11.424;2023-05-09T08:41:42;10.70;;;10.07;;
21562;SDS011;10942;47.894;11.424;2023-05-09T08:44:08;12.00;;;11.10;;
21562;SDS011;10942;47.894;11.424;2023-05-09T08:46:35;4.45;;;3.10;;
21562;SDS011;10942;47.894;11.424;2023-05-09T08:49:04;3.60;;;3.00;;
21562;SDS011;10942;47.894;11.424;2023-05-09T08:51:34;4.68;;;3.30;;
21562;SDS011;10942;47.894;11.424;2023-05-09T08:54:00;5.40;;;2.70;;
21562;SDS011;10942;47.894;11.424;2023-05-09T08:56:26;4.57;;;3.33;;
21562;SDS011;10942;47.894;11.424;2023-05-09T08:58:53;3.42;;;2.75;;
21562;SDS011;10942;47.894;11.424;2023-05-09T09:01:20;4.38;;;3.05;;
21562;SDS011;10942;47.894;11.424;2023-05-09T09:03:47;6.63;;;3.42;;
21562;SDS011;10942;47.894;11.424;2023-05-09T09:06:14;3.90;;;2.88;;
21562;SDS011;10942;47.894;11.424;2023-05-09T09:08:40;3.90;;;2.95;;
21562;SDS011;10942;47.894;11.424;2023-05-09T09:11:09;4.80;;;2.70;;
21562;SDS011;10942;47.894;11.424;2023-05-09T09:13:36;3.78;;;2.97;;
21562;SDS011;10942;47.894;11.424;2023-05-09T09:16:05;2.33;;;1.52;;
21562;SDS011;10942;47.894;11.424;2023-05-09T09:18:33;2.60;;;1.58;;
21562;SDS011;10942;47.894;11.424;2023-05-09T09:21:02;2.33;;;1.60;;
21562;SDS011;10942;47.894;11.424;2023-05-09T09:23:30;2.40;;;1.60;;
21562;SDS011;10942;47.894;11.424;2023-05-09T09:25:58;2.28;;;1.42;;
21562;SDS011;10942;47.894;11.424;2023-05-09T09:28:24;2.08;;;1.67;;
21562;SDS011;10942;47.894;11.424;2023-05-09T09:30:50;2.50;;;1.58;;
21562;SDS011;10942;47.894;11.424;2023-05-09T09:33:23;2.67;;;1.80;;
21562;SDS011;10942;47.894;11.424;2023-05-09T09:35:50;2.42;;;1.60;;
21562;SDS011;10942;47.894;11.424;2023-05-09T09:38:17;2.53;;;1.65;;
21562;SDS011;10942;47.894;11.424;2023-05-09T09:40:56;4.25;;;3.92;;
21562;SDS011;10942;47.894;11.424;2023-05-09T09:43:29;4.68;;;3.30;;
21562;SDS011;10942;47.894;11.424;2023-05-09T09:45:55;3.08;;;2.58;;
21562;SDS011;10942;47.894;11.424;2023-05-09T09:48:33;1.63;;;1.30;;
21562;SDS011;10942;47.894;11.424;2023-05-09T09:51:06;2.60;;;1.55;;
21562;SDS011;10942;47.894;11.424;2023-05-09T09:53:38;1.92;;;1.33;;
21562;SDS011;10942;47.894;11.424;2023-05-09T09:56:07;2.40;;;1.70;;
21562;SDS011;10942;47.894;11.424;2023-05-09T09:58:33;4.13;;;1.77;;
21562;SDS011;10942;47.894;11.424;2023-05-09T10:01:03;2.10;;;1.40;;
21562;SDS011;10942;47.894;11.424;2023-05-09T10:03:37;1.90;;;1.23;;
21562;SDS011;10942;47.894;11.424;2023-05-09T10:06:05;2.00;;;1.42;;
21562;SDS011;10942;47.894;11.424;2023-05-09T10:08:37;1.77;;;1.50;;
21562;SDS011;10942;47.894;11.424;2023-05-09T10:11:08;2.70;;;2.05;;
21562;SDS011;10942;47.894;11.424;2023-05-09T10:13:34;2.05;;;1.40;;
21562;SDS011;10942;47.894;11.424;2023-05-09T10:16:01;2.10;;;1.60;;
21562;SDS011;10942;47.894;11.424;2023-05-09T10:18:28;1.92;;;1.13;;
21562;SDS011;10942;47.894;11.424;2023-05-09T10:20:58;1.63;;;1.45;;
21562;SDS011;10942;47.894;11.424;2023-05-09T10:23:27;2.55;;;2.03;;
21562;SDS011;10942;47.894;11.424;2023-05-09T10:25:59;2.30;;;1.77;;
21562;SDS011;10942;47.894;11.424;2023-05-09T10:28:32;1.77;;;1.52;;
21562;SDS011;10942;47.894;11.424;2023-05-09T10:31:15;1.83;;;1.30;;
21562;SDS011;10942;47.894;11.424;2023-05-09T10:33:50;1.85;;;1.58;;
21562;SDS011;10942;47.894;11.424;2023-05-09T10:36:18;2.53;;;1.83;;
21562;SDS011;10942;47.894;11.424;2023-05-09T10:38:48;3.08;;;1.75;;
21562;SDS011;10942;47.894;11.424;2023-05-09T10:41:16;3.35;;;1.90;;
21562;SDS011;10942;47.894;11.424;2023-05-09T10:43:43;2.33;;;1.60;;
21562;SDS011;10942;47.894;11.424;2023-05-09T10:46:09;2.13;;;1.73;;
21562;SDS011;10942;47.894;11.424;2023-05-09T10:48:37;2.60;;;1.65;;
21562;SDS011;10942;47.894;11.424;2023-05-09T10:51:03;2.13;;;1.70;;
21562;SDS011;10942;47.894;11.424;2023-05-09T10:56:08;1.60;;;1.38;;
21562;SDS011;10942;47.894;11.424;2023-05-09T10:58:46;2.67;;;1.95;;
21562;SDS011;10942;47.894;11.424;2023-05-09T11:01:12;1.65;;;1.38;;
21562;SDS011;10942;47.894;11.424;2023-05-09T11:03:54;1.45;;;1.35;;
21562;SDS011;10942;47.894;11.424;2023-05-09T11:14:31;2.08;;;1.00;;
21562;SDS011;10942;47.894;11.424;2023-05-09T11:17:03;1.65;;;1.10;;
21562;SDS011;10942;47.894;11.424;2023-05-09T11:19:34;1.95;;;1.33;;
21562;SDS011;10942;47.894;11.424;2023-05-09T11:22:22;1.10;;;0.88;;
21562;SDS011;10942;47.894;11.424;2023-05-09T11:25:00;1.48;;;1.05;;
21562;SDS011;10942;47.894;11.424;2023-05-09T11:30:13;1.52;;;1.10;;
21562;SDS011;10942;47.894;11.424;2023-05-09T11:32:58;1.50;;;1.10;;
21562;SDS011;10942;47.894;11.424;2023-05-09T11:35:24;2.38;;;1.00;;
21562;SDS011;10942;47.894;11.424;2023-05-09T11:38:01;1.48;;;0.93;;
21562;SDS011;10942;47.894;11.424;2023-05-09T11:40:29;3.25;;;1.30;;
21562;SDS011;10942;47.894;11.424;2023-05-09T11:42:56;1.27;;;1.00;;
21562;SDS011;10942;47.894;11.424;2023-05-09T11:45:27;1.98;;;1.40;;
21562;SDS011;10942;47.894;11.424;2023-05-09T11:47:54;1.33;;;1.20;;
21562;SDS011;10942;47.894;11.424;2023-05-09T11:50:21;3.03;;;1.05;;
21562;SDS011;10942;47.894;11.424;2023-05-09T11:52:48;3.95;;;1.50;;
21562;SDS011;10942;47.894;11.424;2023-05-09T11:55:18;2.10;;;1.35;;
21562;SDS011;10942;47.894;11.424;2023-05-09T11:57:47;5.18;;;2.50;;
21562;SDS011;10942;47.894;11.424;2023-05-09T12:00:21;3.42;;;2.15;;
21562;SDS011;10942;47.894;11.424;2023-05-09T12:02:48;3.22;;;2.35;;
21562;SDS011;10942;47.894;11.424;2023-05-09T12:05:18;3.60;;;2.67;;
21562;SDS011;10942;47.894;11.424;2023-05-09T12:07:46;4.63;;;2.92;;
21562;SDS011;10942;47.894;11.424;2023-05-09T12:10:13;3.97;;;2.88;;
21562;SDS011;10942;47.894;11.424;2023-05-09T12:12:42;4.55;;;2.53;;
21562;SDS011;10942;47.894;11.424;2023-05-09T12:15:09;4.00;;;2.80;;
21562;SDS011;10942;47.894;11.424;2023-05-09T12:17:37;4.53;;;3.00;;
21562;SDS011;10942;47.894;11.424;2023-05-09T12:20:04;4.38;;;2.60;;
21562;SDS011;10942;47.894;11.424;2023-05-09T12:22:30;4.50;;;3.15;;
21562;SDS011;10942;47.894;11.424;2023-05-09T12:24:58;4.70;;;3.20;;
21562;SDS011;10942;47.894;11.424;2023-05-09T12:27:26;4.43;;;3.30;;
21562;SDS011;10942;47.894;11.424;2023-05-09T12:29:53;5.82;;;3.90;;
21562;SDS011;10942;47.894;11.424;2023-05-09T12:32:19;5.22;;;4.20;;
21562;SDS011;10942;47.894;11.424;2023-05-09T12:34:45;5.68;;;3.97;;
21562;SDS011;10942;47.894;11.424;2023-05-09T12:37:16;4.68;;;3.15;;
21562;SDS011;10942;47.894;11.424;2023-05-09T12:39:43;5.30;;;3.72;;
21562;SDS011;10942;47.894;11.424;2023-05-09T12:42:26;4.73;;;3.57;;
21562;SDS011;10942;47.894;11.424;2023-05-09T12:44:52;5.05;;;3.95;;
21562;SDS011;10942;47.894;11.424;2023-05-09T12:47:18;5.45;;;4.38;;
21562;SDS011;10942;47.894;11.424;2023-05-09T12:49:47;5.07;;;3.55;;
21562;SDS011;10942;47.894;11.424;2023-05-09T12:52:17;5.22;;;3.70;;
21562;SDS011;10942;47.894;11.424;2023-05-09T12:54:44;7.03;;;3.60;;
21562;SDS011;10942;47.894;11.424;2023-05-09T12:57:19;7.53;;;4.55;;
21562;SDS011;10942;47.894;11.424;2023-05-09T12:59:56;5.53;;;4.00;;
21562;SDS011;10942;47.894;11.424;2023-05-09T13:02:26;5.05;;;3.88;;
21562;SDS011;10942;47.894;11.424;2023-05-09T13:05:04;4.72;;;3.00;;
21562;SDS011;10942;47.894;11.424;2023-05-09T13:07:41;4.63;;;3.42;;
21562;SDS011;10942;47.894;11.424;2023-05-09T13:10:17;5.47;;;3.28;;
21562;SDS011;10942;47.894;11.424;2023-05-09T13:12:47;5.43;;;3.20;;
21562;SDS011;10942;47.894;11.424;2023-05-09T13:15:15;4.55;;;3.38;;
21562;SDS011;10942;47.894;11.424;2023-05-09T13:17:45;4.93;;;2.63;;
21562;SDS011;10942;47.894;11.424;2023-05-09T13:20:11;6.47;;;2.47;;
21562;SDS011;10942;47.894;11.424;2023-05-09T13:22:37;4.07;;;3.17;;
21562;SDS011;10942;47.894;11.424;2023-05-09T13:25:03;6.70;;;2.88;;
21562;SDS011;10942;47.894;11.424;2023-05-09T13:27:30;5.70;;;2.80;;
21562;SDS011;10942;47.894;11.424;2023-05-09T13:29:56;4.80;;;2.75;;
21562;SDS011;10942;47.894;11.424;2023-05-09T13:32:22;4.53;;;3.25;;
21562;SDS011;10942;47.894;11.424;2023-05-09T13:34:49;5.22;;;2.90;;
21562;SDS011;10942;47.894;11.424;2023-05-09T13:37:15;4.63;;;2.60;;
21562;SDS011;10942;47.894;11.424;2023-05-09T13:39:41;4.93;;;2.38;;
21562;SDS011;10942;47.894;11.424;2023-05-09T13:42:07;5.00;;;2.50;;
21562;SDS011;10942;47.894;11.424;2023-05-09T13:44:32;4.32;;;2.40;;
21562;SDS011;10942;47.894;11.424;2023-05-09T13:46:58;4.40;;;2.78;;
21562;SDS011;10942;47.894;11.424;2023-05-09T13:49:24;4.55;;;2.70;;
21562;SDS011;10942;47.894;11.424;2023-05-09T13:51:51;3.38;;;2.28;;
21562;SDS011;10942;47.894;11.424;2023-05-09T13:54:20;3.17;;;2.40;;
21562;SDS011;10942;47.894;11.424;2023-05-09T13:56:47;6.32;;;2.17;;
21562;SDS011;10942;47.894;11.424;2023-05-09T13:59:13;4.65;;;2.60;;
21562;SDS011;10942;47.894;11.424;2023-05-09T14:01:39;7.07;;;2.78;;
21562;SDS011;10942;47.894;11.424;2023-05-09T14:04:05;4.45;;;2.47;;
21562;SDS011;10942;47.894;11.424;2023-05-09T14:06:31;4.68;;;2.92;;
21562;SDS011;10942;47.894;11.424;2023-05-09T14:08:57;5.95;;;2.63;;
21562;SDS011;10942;47.894;11.424;2023-05-09T14:11:23;6.15;;;2.88;;
21562;SDS011;10942;47.894;11.424;2023-05-09T14:13:49;4.05;;;2.70;;
21562;SDS011;10942;47.894;11.424;2023-05-09T14:16:17;4.50;;;3.13;;
21562;SDS011;10942;47.894;11.424;2023-05-09T14:18:43;3.50;;;2.53;;
21562;SDS011;10942;47.894;11.424;2023-05-09T14:21:09;5.07;;;3.05;;
21562;SDS011;10942;47.894;11.424;2023-05-09T14:23:34;4.35;;;3.03;;
21562;SDS011;10942;47.894;11.424;2023-05-09T14:26:00;6.15;;;3.25;;
21562;SDS011;10942;47.894;11.424;2023-05-09T14:28:26;6.57;;;3.47;;
21562;SDS011;10942;47.894;11.424;2023-05-09T14:30:52;6.15;;;3.58;;
21562;SDS011;10942;47.894;11.424;2023-05-09T14:33:17;5.63;;;3.63;;
21562;SDS011;10942;47.894;11.424;2023-05-09T14:35:43;6.72;;;3.42;;
21562;SDS011;10942;47.894;11.424;2023-05-09T14:38:09;4.63;;;3.70;;
21562;SDS011;10942;47.894;11.424;2023-05-09T14:40:36;6.80;;;4.05;;
21562;SDS011;10942;47.894;11.424;2023-05-09T14:43:02;4.63;;;3.35;;
21562;SDS011;10942;47.894;11.424;2023-05-09T14:45:28;6.18;;;3.85;;
21562;SDS011;10942;47.894;11.424;2023-05-09T14:47:54;7.10;;;4.22;;
21562;SDS011;10942;47.894;11.424;2023-05-09T14:50:20;5.25;;;3.95;;
21562;SDS011;10942;47.894;11.424;2023-05-09T14:52:47;5.45;;;3.60;;
21562;SDS011;10942;47.894;11.424;2023-05-09T14:55:14;5.35;;;3.95;;
21562;SDS011;10942;47.894;11.424;2023-05-09T14:57:39;5.95;;;4.20;;
21562;SDS011;10942;47.894;11.424;2023-05-09T15:00:05;4.57;;;3.38;;
21562;SDS011;10942;47.894;11.424;2023-05-09T15:02:31;7.03;;;4.15;;
21562;SDS011;10942;47.894;11.424;2023-05-09T15:04:58;8.88;;;3.88;;